sensor_id;sensor_type;location;lat;lon;timestamp;pressure;altitude;pressure_sealevel;temperature;humidity
37486;BME280;23341;50.296;18.960;2022-10-31T00:02:20;113062.75;;;-144.43;98.88
37486;BME280;23341;50.296;18.960;2022-10-31T00:07:59;113062.75;;;-144.43;99.12
37486;BME280;23341;50.296;18.960;2022-10-31T00:13:35;113062.75;;;-144.43;99.73
37486;BME280;23341;50.296;18.960;2022-10-31T00:19:12;113062.75;;;-144.43;100.00
37486;BME280;23341;50.296;18.960;2022-10-31T00:24:51;113062.75;;;-144.43;100.00
37486;BME280;23341;50.296;18.960;2022-10-31T00:30:27;113062.75;;;-144.43;100.00
37486;BME280;23341;50.296;18.960;2022-10-31T00:36:06;113062.75;;;-144.43;100.00
37486;BME280;23341;50.296;18.960;2022-10-31T00:41:45;113062.75;;;-144.43;100.00
37486;BME280;23341;50.296;18.960;2022-10-31T00:47:21;113062.75;;;-144.43;100.00
37486;BME280;23341;50.296;18.960;2022-10-31T00:52:58;113062.75;;;-144.43;100.00
37486;BME280;23341;50.296;18.960;2022-10-31T00:58:37;113062.75;;;-144.43;100.00
37486;BME280;23341;50.296;18.960;2022-10-31T01:04:13;113062.75;;;-144.43;100.00
37486;BME280;23341;50.296;18.960;2022-10-31T01:09:50;113062.75;;;-144.43;100.00
37486;BME280;23341;50.296;18.960;2022-10-31T01:15:29;113062.75;;;-144.43;100.00
37486;BME280;23341;50.296;18.960;2022-10-31T01:21:07;113062.75;;;-144.43;100.00
37486;BME280;23341;50.296;18.960;2022-10-31T01:26:46;113062.75;;;-144.43;100.00
37486;BME280;23341;50.296;18.960;2022-10-31T01:32:26;113062.75;;;-144.43;100.00
37486;BME280;23341;50.296;18.960;2022-10-31T01:38:03;113062.75;;;-144.43;100.00
37486;BME280;23341;50.296;18.960;2022-10-31T01:43:50;113062.75;;;-144.43;100.00
37486;BME280;23341;50.296;18.960;2022-10-31T01:49:34;113062.75;;;-144.43;100.00
37486;BME280;23341;50.296;18.960;2022-10-31T01:55:15;113062.75;;;-144.43;100.00
37486;BME280;23341;50.296;18.960;2022-10-31T02:00:56;113062.75;;;-144.43;100.00
37486;BME280;23341;50.296;18.960;2022-10-31T02:06:38;113062.75;;;-144.43;100.00
37486;BME280;23341;50.296;18.960;2022-10-31T02:12:18;113062.75;;;-144.43;100.00
37486;BME280;23341;50.296;18.960;2022-10-31T02:17:55;113062.75;;;-144.43;100.00
37486;BME280;23341;50.296;18.960;2022-10-31T02:24:00;113062.75;;;-144.43;100.00
37486;BME280;23341;50.296;18.960;2022-10-31T02:30:06;113062.75;;;-144.43;100.00
37486;BME280;23341;50.296;18.960;2022-10-31T02:35:53;113062.75;;;-144.43;100.00
37486;BME280;23341;50.296;18.960;2022-10-31T02:41:35;113062.75;;;-144.43;100.00
37486;BME280;23341;50.296;18.960;2022-10-31T02:47:15;113062.75;;;-144.43;100.00
37486;BME280;23341;50.296;18.960;2022-10-31T02:52:55;113062.75;;;-144.43;100.00
37486;BME280;23341;50.296;18.960;2022-10-31T02:58:35;113062.75;;;-144.43;100.00
37486;BME280;23341;50.296;18.960;2022-10-31T03:04:28;113062.75;;;-144.43;100.00
37486;BME280;23341;50.296;18.960;2022-10-31T03:10:16;113062.75;;;-144.43;100.00
37486;BME280;23341;50.296;18.960;2022-10-31T03:16:03;113062.75;;;-144.43;100.00
37486;BME280;23341;50.296;18.960;2022-10-31T03:21:45;113062.75;;;-144.43;100.00
37486;BME280;23341;50.296;18.960;2022-10-31T03:27:25;113062.75;;;-144.43;100.00
37486;BME280;23341;50.296;18.960;2022-10-31T03:33:08;113062.75;;;-144.43;100.00
37486;BME280;23341;50.296;18.960;2022-10-31T03:38:47;113062.75;;;-144.43;100.00
37486;BME280;23341;50.296;18.960;2022-10-31T03:44:29;113062.75;;;-144.43;100.00
37486;BME280;23341;50.296;18.960;2022-10-31T03:50:07;113062.75;;;-144.43;100.00
37486;BME280;23341;50.296;18.960;2022-10-31T03:55:49;113062.75;;;-144.43;100.00
37486;BME280;23341;50.296;18.960;2022-10-31T04:01:30;113062.75;;;-144.43;100.00
37486;BME280;23341;50.296;18.960;2022-10-31T04:07:10;113062.75;;;-144.43;100.00
37486;BME280;23341;50.296;18.960;2022-10-31T04:12:50;113062.75;;;-144.43;100.00
37486;BME280;23341;50.296;18.960;2022-10-31T04:18:39;113062.75;;;-144.43;100.00
37486;BME280;23341;50.296;18.960;2022-10-31T04:24:15;113062.75;;;-144.43;100.00
37486;BME280;23341;50.296;18.960;2022-10-31T04:29:52;113062.75;;;-144.43;100.00
37486;BME280;23341;50.296;18.960;2022-10-31T04:35:31;113062.75;;;-144.43;100.00
37486;BME280;23341;50.296;18.960;2022-10-31T04:41:07;113062.75;;;-144.43;100.00
37486;BME280;23341;50.296;18.960;2022-10-31T04:46:48;113062.75;;;-144.43;100.00
37486;BME280;23341;50.296;18.960;2022-10-31T04:52:27;113062.75;;;-144.43;100.00
37486;BME280;23341;50.296;18.960;2022-10-31T04:58:08;113062.75;;;-144.43;100.00
37486;BME280;23341;50.296;18.960;2022-10-31T05:03:45;113062.75;;;-144.43;100.00
37486;BME280;23341;50.296;18.960;2022-10-31T05:09:24;113062.75;;;-144.43;100.00
37486;BME280;23341;50.296;18.960;2022-10-31T05:15:02;113062.75;;;-144.43;100.00
37486;BME280;23341;50.296;18.960;2022-10-31T05:20:56;113062.75;;;-144.43;100.00
37486;BME280;23341;50.296;18.960;2022-10-31T05:26:40;113062.75;;;-144.43;100.00
37486;BME280;23341;50.296;18.960;2022-10-31T05:32:16;113062.75;;;-144.43;100.00
37486;BME280;23341;50.296;18.960;2022-10-31T05:38:31;113062.75;;;-144.43;100.00
37486;BME280;23341;50.296;18.960;2022-10-31T05:44:12;113062.75;;;-144.43;100.00
37486;BME280;23341;50.296;18.960;2022-10-31T05:50:07;113062.75;;;-144.43;100.00
37486;BME280;23341;50.296;18.960;2022-10-31T05:55:53;113062.75;;;-144.43;100.00
37486;BME280;23341;50.296;18.960;2022-10-31T06:01:32;113062.75;;;-144.43;100.00
37486;BME280;23341;50.296;18.960;2022-10-31T06:07:32;113062.75;;;-144.43;100.00
37486;BME280;23341;50.296;18.960;2022-10-31T06:13:10;113062.75;;;-144.43;100.00
37486;BME280;23341;50.296;18.960;2022-10-31T06:18:55;113062.75;;;-144.43;100.00
37486;BME280;23341;50.296;18.960;2022-10-31T06:24:24;113062.75;;;-144.43;100.00
37486;BME280;23341;50.296;18.960;2022-10-31T06:30:25;113062.75;;;-144.43;100.00
37486;BME280;23341;50.296;18.960;2022-10-31T06:36:03;113062.75;;;-144.43;100.00
37486;BME280;23341;50.296;18.960;2022-10-31T06:41:40;113062.75;;;-144.43;100.00
37486;BME280;23341;50.296;18.960;2022-10-31T06:47:24;113062.75;;;-144.43;99.22
37486;BME280;23341;50.296;18.960;2022-10-31T06:53:27;113062.75;;;-144.43;84.44
37486;BME280;23341;50.296;18.960;2022-10-31T06:59:04;113062.75;;;-144.43;75.14
37486;BME280;23341;50.296;18.960;2022-10-31T07:05:07;113062.75;;;-144.43;71.18
37486;BME280;23341;50.296;18.960;2022-10-31T07:10:51;113062.75;;;-144.43;72.89
37486;BME280;23341;50.296;18.960;2022-10-31T07:16:28;113062.75;;;-144.43;70.37
37486;BME280;23341;50.296;18.960;2022-10-31T07:22:10;113062.75;;;-144.43;72.26
37486;BME280;23341;50.296;18.960;2022-10-31T07:27:49;113062.75;;;-144.43;71.88
37486;BME280;23341;50.296;18.960;2022-10-31T07:33:26;113062.75;;;-144.43;67.38
37486;BME280;23341;50.296;18.960;2022-10-31T07:39:15;113062.75;;;-144.43;63.42
37486;BME280;23341;50.296;18.960;2022-10-31T07:44:56;113062.75;;;-144.43;64.50
37486;BME280;23341;50.296;18.960;2022-10-31T07:51:09;113062.75;;;-144.43;63.43
37486;BME280;23341;50.296;18.960;2022-10-31T07:57:18;113062.75;;;-144.43;62.92
37486;BME280;23341;50.296;18.960;2022-10-31T08:03:11;113062.75;;;-144.43;61.29
37486;BME280;23341;50.296;18.960;2022-10-31T08:09:12;113062.75;;;-144.43;64.77
37486;BME280;23341;50.296;18.960;2022-10-31T08:14:56;113062.75;;;-144.43;64.00
37486;BME280;23341;50.296;18.960;2022-10-31T08:20:35;113062.75;;;-144.43;63.51
37486;BME280;23341;50.296;18.960;2022-10-31T08:26:11;113062.75;;;-144.43;63.41
37486;BME280;23341;50.296;18.960;2022-10-31T08:31:51;113062.75;;;-144.43;62.30
37486;BME280;23341;50.296;18.960;2022-10-31T08:38:03;113062.75;;;-144.43;62.46
37486;BME280;23341;50.296;18.960;2022-10-31T08:43:39;113062.75;;;-144.43;60.47
37486;BME280;23341;50.296;18.960;2022-10-31T08:49:16;113062.75;;;-144.43;59.17
37486;BME280;23341;50.296;18.960;2022-10-31T08:55:01;113062.75;;;-144.43;58.65
37486;BME280;23341;50.296;18.960;2022-10-31T09:00:53;113062.75;;;-144.43;58.49
37486;BME280;23341;50.296;18.960;2022-10-31T09:06:24;113062.75;;;-144.43;57.30
37486;BME280;23341;50.296;18.960;2022-10-31T09:12:18;113062.75;;;-144.43;57.00
37486;BME280;23341;50.296;18.960;2022-10-31T09:18:16;113062.75;;;-144.43;56.78
37486;BME280;23341;50.296;18.960;2022-10-31T09:23:53;113062.75;;;-144.43;56.13
37486;BME280;23341;50.296;18.960;2022-10-31T09:29:32;113062.75;;;-144.43;55.60
37486;BME280;23341;50.296;18.960;2022-10-31T09:35:08;113062.75;;;-144.43;54.51
37486;BME280;23341;50.296;18.960;2022-10-31T09:40:50;113062.75;;;-144.43;53.33
37486;BME280;23341;50.296;18.960;2022-10-31T09:46:41;113062.75;;;-144.43;52.08
37486;BME280;23341;50.296;18.960;2022-10-31T09:52:28;113062.75;;;-144.43;49.17
37486;BME280;23341;50.296;18.960;2022-10-31T09:58:09;113062.75;;;-144.43;49.05
37486;BME280;23341;50.296;18.960;2022-10-31T10:03:55;113062.75;;;-144.43;47.94
37486;BME280;23341;50.296;18.960;2022-10-31T10:09:53;113062.75;;;-144.43;48.56
37486;BME280;23341;50.296;18.960;2022-10-31T10:16:11;113062.75;;;-144.43;46.77
37486;BME280;23341;50.296;18.960;2022-10-31T10:22:01;113062.75;;;-144.43;47.07
37486;BME280;23341;50.296;18.960;2022-10-31T10:27:54;113062.75;;;-144.43;47.45
37486;BME280;23341;50.296;18.960;2022-10-31T10:33:35;113062.75;;;-144.43;47.14
37486;BME280;23341;50.296;18.960;2022-10-31T10:39:18;113062.75;;;-144.43;45.18
37486;BME280;23341;50.296;18.960;2022-10-31T10:44:58;113062.75;;;-144.43;43.50
37486;BME280;23341;50.296;18.960;2022-10-31T10:50:52;113062.75;;;-144.43;42.25
37486;BME280;23341;50.296;18.960;2022-10-31T10:56:58;113062.75;;;-144.43;42.13
37486;BME280;23341;50.296;18.960;2022-10-31T11:02:37;113062.75;;;-144.43;40.56
37486;BME280;23341;50.296;18.960;2022-10-31T11:08:23;113062.75;;;-144.43;41.78
37486;BME280;23341;50.296;18.960;2022-10-31T11:14:03;113062.75;;;-144.43;42.45
37486;BME280;23341;50.296;18.960;2022-10-31T11:19:41;113062.75;;;-144.43;41.92
37486;BME280;23341;50.296;18.960;2022-10-31T11:25:22;113062.75;;;-144.43;41.37
37486;BME280;23341;50.296;18.960;2022-10-31T11:31:05;113062.75;;;-144.43;41.67
37486;BME280;23341;50.296;18.960;2022-10-31T11:36:44;113062.75;;;-144.43;41.50
37486;BME280;23341;50.296;18.960;2022-10-31T11:42:22;113062.75;;;-144.43;41.70
37486;BME280;23341;50.296;18.960;2022-10-31T11:48:02;113062.75;;;-144.43;42.67
37486;BME280;23341;50.296;18.960;2022-10-31T11:53:52;113062.75;;;-144.43;41.19
37486;BME280;23341;50.296;18.960;2022-10-31T11:59:31;113062.75;;;-144.43;41.58
37486;BME280;23341;50.296;18.960;2022-10-31T12:05:17;113062.75;;;-144.43;41.14
37486;BME280;23341;50.296;18.960;2022-10-31T12:11:02;113062.75;;;-144.43;41.38
37486;BME280;23341;50.296;18.960;2022-10-31T12:16:46;113062.75;;;-144.43;40.73
37486;BME280;23341;50.296;18.960;2022-10-31T12:22:35;113062.75;;;-144.43;41.74
37486;BME280;23341;50.296;18.960;2022-10-31T12:28:44;113062.75;;;-144.43;41.57
37486;BME280;23341;50.296;18.960;2022-10-31T12:34:47;113062.75;;;-144.43;42.44
37486;BME280;23341;50.296;18.960;2022-10-31T12:40:59;113062.75;;;-144.43;42.19
37486;BME280;23341;50.296;18.960;2022-10-31T12:46:54;113062.75;;;-144.43;41.51
37486;BME280;23341;50.296;18.960;2022-10-31T12:52:48;113062.75;;;-144.43;41.87
37486;BME280;23341;50.296;18.960;2022-10-31T12:58:33;113062.75;;;-144.43;42.26
37486;BME280;23341;50.296;18.960;2022-10-31T13:04:16;113062.75;;;-144.43;43.00
37486;BME280;23341;50.296;18.960;2022-10-31T13:10:00;113062.75;;;-144.43;42.36
37486;BME280;23341;50.296;18.960;2022-10-31T13:15:46;113062.75;;;-144.43;42.77
37486;BME280;23341;50.296;18.960;2022-10-31T13:21:27;113062.75;;;-144.43;43.79
37486;BME280;23341;50.296;18.960;2022-10-31T13:27:13;113062.75;;;-144.43;44.02
37486;BME280;23341;50.296;18.960;2022-10-31T13:32:57;113062.75;;;-144.43;43.36
37486;BME280;23341;50.296;18.960;2022-10-31T13:38:41;113062.75;;;-144.43;42.71
37486;BME280;23341;50.296;18.960;2022-10-31T13:44:21;113062.75;;;-144.43;43.54
37486;BME280;23341;50.296;18.960;2022-10-31T13:50:06;113062.75;;;-144.43;42.82
37486;BME280;23341;50.296;18.960;2022-10-31T13:56:03;113062.75;;;-144.43;42.47
37486;BME280;23341;50.296;18.960;2022-10-31T14:01:46;113062.75;;;-144.43;41.50
37486;BME280;23341;50.296;18.960;2022-10-31T14:07:26;113062.75;;;-144.43;41.00
37486;BME280;23341;50.296;18.960;2022-10-31T14:13:05;113062.75;;;-144.43;40.55
37486;BME280;23341;50.296;18.960;2022-10-31T14:18:48;113062.75;;;-144.43;40.68
37486;BME280;23341;50.296;18.960;2022-10-31T14:24:36;113062.75;;;-144.43;39.82
37486;BME280;23341;50.296;18.960;2022-10-31T14:30:19;113062.75;;;-144.43;40.46
37486;BME280;23341;50.296;18.960;2022-10-31T14:36:06;113062.75;;;-144.43;41.82
37486;BME280;23341;50.296;18.960;2022-10-31T14:42:10;113062.75;;;-144.43;44.14
37486;BME280;23341;50.296;18.960;2022-10-31T14:47:59;113062.75;;;-144.43;45.49
37486;BME280;23341;50.296;18.960;2022-10-31T14:53:45;113062.75;;;-144.43;46.89
37486;BME280;23341;50.296;18.960;2022-10-31T14:59:28;113062.75;;;-144.43;48.80
37486;BME280;23341;50.296;18.960;2022-10-31T15:05:07;113062.75;;;-144.43;50.35
37486;BME280;23341;50.296;18.960;2022-10-31T15:10:45;113062.75;;;-144.43;53.16
37486;BME280;23341;50.296;18.960;2022-10-31T15:16:33;113062.75;;;-144.43;54.86
37486;BME280;23341;50.296;18.960;2022-10-31T15:22:14;113062.75;;;-144.43;56.39
37486;BME280;23341;50.296;18.960;2022-10-31T15:27:52;113062.75;;;-144.43;58.51
37486;BME280;23341;50.296;18.960;2022-10-31T15:33:38;113062.75;;;-144.43;61.01
37486;BME280;23341;50.296;18.960;2022-10-31T15:39:17;113062.75;;;-144.43;62.51
37486;BME280;23341;50.296;18.960;2022-10-31T15:44:58;113062.75;;;-144.43;64.73
37486;BME280;23341;50.296;18.960;2022-10-31T15:50:40;113062.75;;;-144.43;66.41
37486;BME280;23341;50.296;18.960;2022-10-31T15:56:20;113062.75;;;-144.43;67.93
37486;BME280;23341;50.296;18.960;2022-10-31T16:02:00;113062.75;;;-144.43;69.79
37486;BME280;23341;50.296;18.960;2022-10-31T16:07:48;113062.75;;;-144.43;71.16
37486;BME280;23341;50.296;18.960;2022-10-31T16:13:27;113062.75;;;-144.43;72.64
37486;BME280;23341;50.296;18.960;2022-10-31T16:19:05;113062.75;;;-144.43;73.25
37486;BME280;23341;50.296;18.960;2022-10-31T16:24:54;113062.75;;;-144.43;74.73
37486;BME280;23341;50.296;18.960;2022-10-31T16:30:39;113062.75;;;-144.43;76.18
37486;BME280;23341;50.296;18.960;2022-10-31T16:36:32;113062.75;;;-144.43;77.83
37486;BME280;23341;50.296;18.960;2022-10-31T16:42:11;113062.75;;;-144.43;78.43
37486;BME280;23341;50.296;18.960;2022-10-31T16:47:47;113062.75;;;-144.43;80.11
37486;BME280;23341;50.296;18.960;2022-10-31T16:53:24;113062.75;;;-144.43;81.76
37486;BME280;23341;50.296;18.960;2022-10-31T16:59:11;113062.75;;;-144.43;82.39
37486;BME280;23341;50.296;18.960;2022-10-31T17:04:48;113062.75;;;-144.43;82.70
37486;BME280;23341;50.296;18.960;2022-10-31T17:10:32;113062.75;;;-144.43;82.57
37486;BME280;23341;50.296;18.960;2022-10-31T17:16:13;113062.75;;;-144.43;83.73
37486;BME280;23341;50.296;18.960;2022-10-31T17:21:50;113062.75;;;-144.43;84.78
37486;BME280;23341;50.296;18.960;2022-10-31T17:27:27;113062.75;;;-144.43;84.71
37486;BME280;23341;50.296;18.960;2022-10-31T17:33:14;113062.75;;;-144.43;85.12
37486;BME280;23341;50.296;18.960;2022-10-31T17:38:51;113062.75;;;-144.43;84.90
37486;BME280;23341;50.296;18.960;2022-10-31T17:44:28;113062.75;;;-144.43;86.15
37486;BME280;23341;50.296;18.960;2022-10-31T17:50:08;113062.75;;;-144.43;86.61
37486;BME280;23341;50.296;18.960;2022-10-31T17:55:47;113062.75;;;-144.43;87.91
37486;BME280;23341;50.296;18.960;2022-10-31T18:01:25;113062.75;;;-144.43;88.44
37486;BME280;23341;50.296;18.960;2022-10-31T18:07:15;113062.75;;;-144.43;89.19
37486;BME280;23341;50.296;18.960;2022-10-31T18:12:51;113062.75;;;-144.43;89.77
37486;BME280;23341;50.296;18.960;2022-10-31T18:18:28;113062.75;;;-144.43;90.46
37486;BME280;23341;50.296;18.960;2022-10-31T18:24:08;113062.75;;;-144.43;90.71
37486;BME280;23341;50.296;18.960;2022-10-31T18:29:47;113062.75;;;-144.43;90.57
37486;BME280;23341;50.296;18.960;2022-10-31T18:35:24;113062.75;;;-144.43;90.86
37486;BME280;23341;50.296;18.960;2022-10-31T18:41:03;113062.75;;;-144.43;91.19
37486;BME280;23341;50.296;18.960;2022-10-31T18:46:34;113062.75;;;-144.43;91.33
37486;BME280;23341;50.296;18.960;2022-10-31T18:52:11;113062.75;;;-144.43;92.29
37486;BME280;23341;50.296;18.960;2022-10-31T18:57:50;113062.75;;;-144.43;93.15
37486;BME280;23341;50.296;18.960;2022-10-31T19:03:26;113062.75;;;-144.43;93.31
37486;BME280;23341;50.296;18.960;2022-10-31T19:09:05;113062.75;;;-144.43;94.03
37486;BME280;23341;50.296;18.960;2022-10-31T19:14:44;113062.75;;;-144.43;94.26
37486;BME280;23341;50.296;18.960;2022-10-31T19:20:20;113062.75;;;-144.43;95.06
37486;BME280;23341;50.296;18.960;2022-10-31T19:25:57;113062.75;;;-144.43;95.46
37486;BME280;23341;50.296;18.960;2022-10-31T19:31:36;113062.75;;;-144.43;95.49
37486;BME280;23341;50.296;18.960;2022-10-31T19:37:12;113062.75;;;-144.43;95.07
37486;BME280;23341;50.296;18.960;2022-10-31T19:42:49;113062.75;;;-144.43;95.38
37486;BME280;23341;50.296;18.960;2022-10-31T19:48:28;113062.75;;;-144.43;95.60
37486;BME280;23341;50.296;18.960;2022-10-31T19:54:06;113062.75;;;-144.43;96.56
37486;BME280;23341;50.296;18.960;2022-10-31T19:59:43;113062.75;;;-144.43;97.26
37486;BME280;23341;50.296;18.960;2022-10-31T20:05:27;113062.75;;;-144.43;98.09
37486;BME280;23341;50.296;18.960;2022-10-31T20:11:03;113062.75;;;-144.43;97.52
37486;BME280;23341;50.296;18.960;2022-10-31T20:16:41;113062.75;;;-144.43;97.59
37486;BME280;23341;50.296;18.960;2022-10-31T20:22:20;113062.75;;;-144.43;98.03
37486;BME280;23341;50.296;18.960;2022-10-31T20:27:56;113062.75;;;-144.43;98.11
37486;BME280;23341;50.296;18.960;2022-10-31T20:33:33;113062.75;;;-144.43;98.68
37486;BME280;23341;50.296;18.960;2022-10-31T20:39:12;113062.75;;;-144.43;98.83
37486;BME280;23341;50.296;18.960;2022-10-31T20:44:49;113062.75;;;-144.43;99.38
37486;BME280;23341;50.296;18.960;2022-10-31T20:50:26;113062.75;;;-144.43;99.83
37486;BME280;23341;50.296;18.960;2022-10-31T20:56:07;113062.75;;;-144.43;99.82
37486;BME280;23341;50.296;18.960;2022-10-31T21:01:44;113062.75;;;-144.43;99.60
37486;BME280;23341;50.296;18.960;2022-10-31T21:07:22;113062.75;;;-144.43;100.00
37486;BME280;23341;50.296;18.960;2022-10-31T21:13:00;113062.75;;;-144.43;99.95
37486;BME280;23341;50.296;18.960;2022-10-31T21:18:38;113062.75;;;-144.43;100.00
37486;BME280;23341;50.296;18.960;2022-10-31T21:24:17;113062.75;;;-144.43;100.00
37486;BME280;23341;50.296;18.960;2022-10-31T21:29:58;113062.75;;;-144.43;100.00
37486;BME280;23341;50.296;18.960;2022-10-31T21:35:34;113062.75;;;-144.43;100.00
37486;BME280;23341;50.296;18.960;2022-10-31T21:41:13;113062.75;;;-144.43;100.00
37486;BME280;23341;50.296;18.960;2022-10-31T21:46:52;113062.75;;;-144.43;100.00
37486;BME280;23341;50.296;18.960;2022-10-31T21:52:28;113062.75;;;-144.43;100.00
37486;BME280;23341;50.296;18.960;2022-10-31T21:58:05;113062.75;;;-144.43;100.00
37486;BME280;23341;50.296;18.960;2022-10-31T22:03:47;113062.75;;;-144.43;100.00
37486;BME280;23341;50.296;18.960;2022-10-31T22:09:23;113062.75;;;-144.43;100.00
37486;BME280;23341;50.296;18.960;2022-10-31T22:15:00;113062.75;;;-144.43;100.00
37486;BME280;23341;50.296;18.960;2022-10-31T22:20:39;113062.75;;;-144.43;100.00
37486;BME280;23341;50.296;18.960;2022-10-31T22:26:16;113062.75;;;-144.43;100.00
37486;BME280;23341;50.296;18.960;2022-10-31T22:31:53;113062.75;;;-144.43;100.00
37486;BME280;23341;50.296;18.960;2022-10-31T22:37:32;113062.75;;;-144.43;100.00
37486;BME280;23341;50.296;18.960;2022-10-31T22:43:08;113062.75;;;-144.43;100.00
37486;BME280;23341;50.296;18.960;2022-10-31T22:48:47;113062.75;;;-144.43;100.00
37486;BME280;23341;50.296;18.960;2022-10-31T22:54:26;113062.75;;;-144.43;100.00
37486;BME280;23341;50.296;18.960;2022-10-31T23:00:03;113062.75;;;-144.43;100.00
37486;BME280;23341;50.296;18.960;2022-10-31T23:05:42;113062.75;;;-144.43;100.00
37486;BME280;23341;50.296;18.960;2022-10-31T23:11:23;113062.75;;;-144.43;100.00
37486;BME280;23341;50.296;18.960;2022-10-31T23:17:01;113062.75;;;-144.43;100.00
37486;BME280;23341;50.296;18.960;2022-10-31T23:22:45;113062.75;;;-144.43;100.00
37486;BME280;23341;50.296;18.960;2022-10-31T23:29:04;113062.75;;;-144.43;100.00
37486;BME280;23341;50.296;18.960;2022-10-31T23:34:40;113062.75;;;-144.43;100.00
37486;BME280;23341;50.296;18.960;2022-10-31T23:40:11;113062.75;;;-144.43;100.00
37486;BME280;23341;50.296;18.960;2022-10-31T23:45:51;113062.75;;;-144.43;100.00
37486;BME280;23341;50.296;18.960;2022-10-31T23:51:27;113062.75;;;-144.43;100.00
37486;BME280;23341;50.296;18.960;2022-10-31T23:57:04;113062.75;;;-144.43;100.00
